createdAt,value
2019-03-30T00:01:39.630Z,67.47
2019-03-30T00:04:08.047Z,64.53
2019-03-30T00:06:36.491Z,70.43
2019-03-30T00:09:08.212Z,60.93
2019-03-30T00:11:36.733Z,103.87
2019-03-30T00:14:05.219Z,88.77
2019-03-30T00:16:33.669Z,103.30
2019-03-30T00:19:02.085Z,53.30
2019-03-30T00:21:30.532Z,51.77
2019-03-30T00:23:58.950Z,52.70
2019-03-30T00:26:27.399Z,56.20
2019-03-30T00:28:55.812Z,63.83
2019-03-30T00:31:24.268Z,52.13
2019-03-30T00:33:52.751Z,51.10
2019-03-30T00:36:21.202Z,48.10
2019-03-30T00:38:49.616Z,48.23
2019-03-30T00:41:18.137Z,65.07
2019-03-30T00:43:46.554Z,79.07
2019-03-30T00:46:14.999Z,77.27
2019-03-30T00:48:43.416Z,83.80
2019-03-30T00:51:11.866Z,82.87
2019-03-30T00:53:40.282Z,86.57
2019-03-30T00:56:08.731Z,69.23
2019-03-30T00:58:37.171Z,106.17
2019-03-30T01:01:05.680Z,238.90
2019-03-30T01:03:34.107Z,121.87
2019-03-30T01:06:02.551Z,51.30
2019-03-30T01:08:30.966Z,58.60
2019-03-30T01:10:59.412Z,57.97
2019-03-30T01:13:27.836Z,54.00
2019-03-30T01:15:56.276Z,56.57
2019-03-30T01:18:24.701Z,57.50
2019-03-30T01:20:53.148Z,90.87
2019-03-30T01:23:21.569Z,77.60
2019-03-30T01:25:49.986Z,58.27
2019-03-30T01:28:18.438Z,62.67
2019-03-30T01:30:47.180Z,65.23
2019-03-30T01:33:15.687Z,56.63
2019-03-30T01:35:44.097Z,56.77
2019-03-30T01:38:12.541Z,61.47
2019-03-30T01:40:40.953Z,53.37
2019-03-30T01:43:09.407Z,51.73
2019-03-30T01:45:37.897Z,52.70
2019-03-30T01:48:06.343Z,55.17
2019-03-30T01:50:34.756Z,53.50
2019-03-30T01:53:03.199Z,56.60
2019-03-30T01:55:31.681Z,52.97
2019-03-30T01:58:00.128Z,50.80
2019-03-30T02:00:28.543Z,52.60
2019-03-30T02:02:56.990Z,57.10
2019-03-30T02:05:25.473Z,52.37
2019-03-30T02:07:53.927Z,50.50
2019-03-30T02:10:42.548Z,55.67
2019-03-30T02:13:11.167Z,50.70
2019-03-30T02:15:39.583Z,51.10
2019-03-30T02:18:08.296Z,50.50
2019-03-30T02:20:45.380Z,47.60
2019-03-30T02:23:20.779Z,48.50
2019-03-30T02:25:49.197Z,47.90
2019-03-30T02:28:17.639Z,47.83
2019-03-30T02:30:46.060Z,82.73
2019-03-30T02:33:14.626Z,53.47
2019-03-30T02:35:42.982Z,46.67
2019-03-30T02:38:11.434Z,47.90
2019-03-30T02:40:39.841Z,48.73
2019-03-30T02:43:08.354Z,44.73
2019-03-30T02:45:36.832Z,47.70
2019-03-30T02:48:05.343Z,47.27
2019-03-30T02:50:48.576Z,48.23
2019-03-30T02:53:04.020Z,45.83
2019-03-30T02:55:32.450Z,44.97
2019-03-30T02:58:00.851Z,46.73
2019-03-30T03:00:29.284Z,47.57
2019-03-30T03:02:57.707Z,44.90
2019-03-30T03:05:26.217Z,46.67
2019-03-30T03:07:54.639Z,48.13
2019-03-30T03:10:23.319Z,47.40
2019-03-30T03:12:51.739Z,47.00
2019-03-30T03:15:20.180Z,46.87
2019-03-30T03:17:48.598Z,46.33
2019-03-30T03:20:17.027Z,48.30
2019-03-30T03:22:45.441Z,48.73
2019-03-30T03:25:14.122Z,46.73
2019-03-30T03:27:42.530Z,47.70
2019-03-30T03:30:11.366Z,49.37
2019-03-30T03:32:39.760Z,49.83
2019-03-30T03:35:08.755Z,48.37
2019-03-30T03:37:45.531Z,51.03
2019-03-30T03:40:09.078Z,50.30
2019-03-30T03:42:37.634Z,48.40
2019-03-30T03:45:07.813Z,49.40
2019-03-30T03:47:36.292Z,47.80
2019-03-30T03:50:05.673Z,48.20
2019-03-30T03:52:34.419Z,48.63
2019-03-30T03:55:03.033Z,52.07
2019-03-30T03:57:34.367Z,50.50
2019-03-30T04:00:03.734Z,48.13
2019-03-30T04:02:35.332Z,48.37
2019-03-30T04:05:05.120Z,51.90
2019-03-30T04:07:35.009Z,70.20
2019-03-30T04:10:06.192Z,56.93
2019-03-30T04:12:36.626Z,59.80
2019-03-30T04:15:07.481Z,71.37
2019-03-30T04:17:36.038Z,92.53
2019-03-30T04:20:06.200Z,113.97
2019-03-30T04:22:34.710Z,70.30
2019-03-30T04:25:03.703Z,86.90
2019-03-30T04:27:32.165Z,72.43
2019-03-30T04:30:00.676Z,80.93
2019-03-30T04:32:29.200Z,98.77
2019-03-30T04:34:57.606Z,80.80
2019-03-30T04:37:26.075Z,111.33
2019-03-30T04:39:54.482Z,92.93
2019-03-30T04:42:22.931Z,81.00
2019-03-30T04:44:51.342Z,71.87
2019-03-30T04:47:19.801Z,70.00
2019-03-30T04:49:48.211Z,64.17
2019-03-30T04:52:16.660Z,80.67
2019-03-30T04:54:45.071Z,60.10
2019-03-30T04:57:13.512Z,62.43
2019-03-30T04:59:41.932Z,73.27
2019-03-30T05:02:10.378Z,69.40
2019-03-30T05:04:38.801Z,64.17
2019-03-30T05:07:07.251Z,76.90
2019-03-30T05:09:35.666Z,60.30
2019-03-30T05:12:04.186Z,81.93
2019-03-30T05:14:32.600Z,65.60
2019-03-30T05:17:01.061Z,57.93
2019-03-30T05:19:29.459Z,62.47
2019-03-30T05:22:11.630Z,55.03
2019-03-30T05:24:28.037Z,66.50
2019-03-30T05:26:56.484Z,78.30
2019-03-30T05:29:24.897Z,82.40
2019-03-30T05:31:53.346Z,86.87
2019-03-30T05:34:21.766Z,63.10
2019-03-30T05:36:50.186Z,83.77
2019-03-30T05:39:18.632Z,83.23
2019-03-30T05:41:47.047Z,64.27
2019-03-30T05:44:15.495Z,69.03
2019-03-30T05:46:43.917Z,75.87
2019-03-30T05:49:12.367Z,73.13
2019-03-30T05:51:40.852Z,54.93
2019-03-30T05:54:09.302Z,56.10
2019-03-30T05:56:37.715Z,55.57
2019-03-30T05:59:06.157Z,57.77
2019-03-30T06:01:34.577Z,54.33
2019-03-30T06:04:03.078Z,57.57
2019-03-30T06:06:31.512Z,55.00
2019-03-30T06:08:59.967Z,58.10
2019-03-30T06:11:28.386Z,59.13
2019-03-30T06:13:56.833Z,58.40
2019-03-30T06:16:25.257Z,59.60
2019-03-30T06:18:53.706Z,55.90
2019-03-30T06:21:22.128Z,57.33
2019-03-30T06:23:50.570Z,63.57
2019-03-30T06:26:18.990Z,60.13
2019-03-30T06:28:47.442Z,65.53
2019-03-30T06:31:15.865Z,73.10
2019-03-30T06:33:44.305Z,61.70
2019-03-30T06:36:12.722Z,62.83
2019-03-30T06:38:41.510Z,65.20
2019-03-30T06:41:09.939Z,64.20
2019-03-30T06:43:38.390Z,62.77
2019-03-30T06:46:06.802Z,63.90
2019-03-30T06:48:36.241Z,62.17
2019-03-30T06:51:04.854Z,65.53
2019-03-30T06:53:33.324Z,67.80
2019-03-30T06:56:01.819Z,67.00
2019-03-30T06:58:30.825Z,70.30
2019-03-30T07:00:59.421Z,68.07
2019-03-30T07:03:27.912Z,69.73
2019-03-30T07:05:57.023Z,69.70
2019-03-30T07:08:26.986Z,73.93
2019-03-30T07:10:55.808Z,69.13
2019-03-30T07:13:24.389Z,74.17
2019-03-30T07:15:53.216Z,79.40
2019-03-30T07:18:21.702Z,76.47
2019-03-30T07:20:50.225Z,73.87
2019-03-30T07:23:18.725Z,72.27
2019-03-30T07:25:47.175Z,75.60
2019-03-30T07:28:15.590Z,77.07
2019-03-30T07:30:44.035Z,73.97
2019-03-30T07:33:12.458Z,74.00
2019-03-30T07:35:40.977Z,77.87
2019-03-30T07:38:09.405Z,77.90
2019-03-30T07:40:37.848Z,77.37
2019-03-30T07:43:06.268Z,74.60
2019-03-30T07:45:34.784Z,77.90
2019-03-30T07:48:03.205Z,78.07
2019-03-30T07:50:31.718Z,77.13
2019-03-30T07:53:00.134Z,75.60
2019-03-30T07:55:28.554Z,72.33
2019-03-30T07:57:57.032Z,71.97
2019-03-30T08:00:30.592Z,72.47
2019-03-30T08:02:55.673Z,73.97
2019-03-30T08:05:24.107Z,79.53
2019-03-30T08:07:52.556Z,72.77
2019-03-30T08:10:21.039Z,70.60
2019-03-30T08:12:49.487Z,67.80
2019-03-30T08:15:17.979Z,69.40
2019-03-30T08:17:46.431Z,70.90
2019-03-30T08:20:15.186Z,68.40
2019-03-30T08:22:43.632Z,75.27
2019-03-30T08:25:12.123Z,66.80
2019-03-30T08:27:40.578Z,73.13
2019-03-30T08:30:09.230Z,66.17
2019-03-30T08:32:37.684Z,66.80
2019-03-30T08:35:07.344Z,70.57
2019-03-30T08:37:35.805Z,68.43
2019-03-30T08:40:04.770Z,69.37
2019-03-30T08:42:33.223Z,67.87
2019-03-30T08:45:01.645Z,62.10
2019-03-30T08:47:30.085Z,64.67
2019-03-30T08:49:58.512Z,64.93
2019-03-30T08:52:26.960Z,68.80
2019-03-30T08:54:55.389Z,64.90
2019-03-30T08:57:23.837Z,69.70
2019-03-30T08:59:52.264Z,68.87
2019-03-30T09:02:20.882Z,67.57
2019-03-30T09:04:49.305Z,65.20
2019-03-30T09:07:17.754Z,65.00
2019-03-30T09:09:46.184Z,63.23
2019-03-30T09:12:14.612Z,61.40
2019-03-30T09:14:43.066Z,63.43
2019-03-30T09:17:11.487Z,55.80
2019-03-30T09:19:39.937Z,58.17
2019-03-30T09:22:08.364Z,62.40
2019-03-30T09:24:36.808Z,58.60
2019-03-30T09:27:05.227Z,58.03
2019-03-30T09:29:33.688Z,58.47
2019-03-30T09:32:13.806Z,60.23
2019-03-30T09:34:32.351Z,56.40
2019-03-30T09:37:00.771Z,63.20
2019-03-30T09:39:29.214Z,56.30
2019-03-30T09:41:57.636Z,55.10
2019-03-30T09:44:26.089Z,57.43
2019-03-30T09:46:54.518Z,57.50
2019-03-30T09:49:22.955Z,56.27
2019-03-30T09:51:52.266Z,54.33
2019-03-30T09:54:23.881Z,54.30
2019-03-30T09:56:50.850Z,53.80
2019-03-30T09:59:19.298Z,53.90
2019-03-30T10:01:47.713Z,52.80
2019-03-30T10:04:16.162Z,53.97
2019-03-30T10:06:44.567Z,51.47
2019-03-30T10:09:13.005Z,51.30
2019-03-30T10:11:41.417Z,56.87
2019-03-30T10:14:09.856Z,54.20
2019-03-30T10:16:38.282Z,53.10
2019-03-30T10:19:06.720Z,52.30
2019-03-30T10:21:35.133Z,56.63
2019-03-30T10:24:03.553Z,53.67
2019-03-30T10:26:31.993Z,50.67
2019-03-30T10:29:00.396Z,51.77
2019-03-30T10:31:28.844Z,51.57
2019-03-30T10:33:57.251Z,49.83
2019-03-30T10:36:25.684Z,50.07
2019-03-30T10:38:54.111Z,49.57
2019-03-30T10:41:22.551Z,48.40
2019-03-30T10:43:50.969Z,48.83
2019-03-30T10:46:19.415Z,49.37
2019-03-30T10:48:47.834Z,49.60
2019-03-30T10:51:16.340Z,51.10
2019-03-30T10:53:44.760Z,49.43
2019-03-30T10:56:13.194Z,51.40
2019-03-30T10:58:41.606Z,50.43
2019-03-30T11:01:10.048Z,48.20
2019-03-30T11:03:38.458Z,49.97
2019-03-30T11:06:06.908Z,53.70
2019-03-30T11:08:35.328Z,49.10
2019-03-30T11:11:03.833Z,52.30
2019-03-30T11:13:32.258Z,52.17
2019-03-30T11:16:00.702Z,50.87
2019-03-30T11:18:29.116Z,50.23
2019-03-30T11:20:57.554Z,47.77
2019-03-30T11:23:25.963Z,46.47
2019-03-30T11:25:54.428Z,45.73
2019-03-30T11:28:22.816Z,45.47
2019-03-30T11:30:51.235Z,45.37
2019-03-30T11:33:19.740Z,47.20
2019-03-30T11:35:48.225Z,46.70
2019-03-30T11:38:16.672Z,47.10
2019-03-30T11:40:45.086Z,47.10
2019-03-30T11:43:13.529Z,46.80
2019-03-30T11:45:42.020Z,45.67
2019-03-30T11:48:10.462Z,46.40
2019-03-30T11:50:38.870Z,46.63
2019-03-30T11:53:07.383Z,46.40
2019-03-30T11:55:35.793Z,46.70
2019-03-30T11:58:04.237Z,47.43
2019-03-30T12:00:32.723Z,47.43
2019-03-30T12:03:01.176Z,46.10
2019-03-30T12:05:29.589Z,46.00
2019-03-30T12:07:58.096Z,47.13
2019-03-30T12:10:26.517Z,45.93
2019-03-30T12:12:54.957Z,47.80
2019-03-30T12:15:23.377Z,47.80
2019-03-30T12:17:51.862Z,47.83
2019-03-30T12:20:20.307Z,50.03
2019-03-30T12:22:48.724Z,47.67
2019-03-30T12:25:17.147Z,49.90
2019-03-30T12:27:45.593Z,48.27
2019-03-30T12:30:14.073Z,47.07
2019-03-30T12:32:42.516Z,47.03
2019-03-30T12:35:11.009Z,48.33
2019-03-30T12:37:39.459Z,48.97
2019-03-30T12:40:08.016Z,50.17
2019-03-30T12:42:36.520Z,48.87
2019-03-30T12:45:06.578Z,49.30
2019-03-30T12:47:34.995Z,52.43
2019-03-30T12:50:04.374Z,47.90
2019-03-30T12:52:32.790Z,48.83
2019-03-30T12:55:01.240Z,51.40
2019-03-30T12:57:29.653Z,50.03
2019-03-30T12:59:59.331Z,48.90
2019-03-30T13:02:27.953Z,51.67
2019-03-30T13:04:56.399Z,49.17
2019-03-30T13:07:24.819Z,51.50
2019-03-30T13:09:53.257Z,47.53
2019-03-30T13:12:21.668Z,46.83
2019-03-30T13:14:50.115Z,49.60
2019-03-30T13:17:18.526Z,47.67
2019-03-30T13:19:46.961Z,47.17
2019-03-30T13:22:15.388Z,50.47
2019-03-30T13:24:43.816Z,46.17
2019-03-30T13:27:13.124Z,48.30
2019-03-30T13:29:41.753Z,48.20
2019-03-30T13:32:10.165Z,53.60
2019-03-30T13:34:38.623Z,48.47
2019-03-30T13:37:17.783Z,47.47
2019-03-30T13:39:46.486Z,46.07
2019-03-30T13:42:14.896Z,47.30
2019-03-30T13:44:43.431Z,50.70
2019-03-30T13:47:11.841Z,50.07
2019-03-30T13:49:40.274Z,48.30
2019-03-30T13:52:08.687Z,49.87
2019-03-30T13:54:38.743Z,46.53
2019-03-30T13:57:07.425Z,45.47
2019-03-30T13:59:35.895Z,48.97
2019-03-30T14:02:04.309Z,46.50
2019-03-30T14:04:32.722Z,47.70
2019-03-30T14:07:01.173Z,49.10
2019-03-30T14:09:29.582Z,46.10
2019-03-30T14:11:58.025Z,48.00
2019-03-30T14:14:26.451Z,47.33
2019-03-30T14:16:54.902Z,48.10
2019-03-30T14:19:23.315Z,47.73
2019-03-30T14:21:51.761Z,48.47
2019-03-30T14:24:20.166Z,46.57
2019-03-30T14:26:48.610Z,46.27
2019-03-30T14:29:17.026Z,46.80
2019-03-30T14:31:45.494Z,49.40
2019-03-30T14:34:13.957Z,45.27
2019-03-30T14:36:42.406Z,46.80
2019-03-30T14:39:10.833Z,45.13
2019-03-30T14:41:39.267Z,46.37
2019-03-30T14:44:07.693Z,48.97
2019-03-30T14:46:36.140Z,46.47
2019-03-30T14:49:04.619Z,45.90
2019-03-30T14:51:33.074Z,48.30
2019-03-30T14:54:01.495Z,47.60
2019-03-30T14:56:29.940Z,46.23
2019-03-30T14:59:09.378Z,48.77
2019-03-30T15:01:28.519Z,48.70
2019-03-30T15:03:56.943Z,48.50
2019-03-30T15:06:25.388Z,48.60
2019-03-30T15:08:53.796Z,49.10
2019-03-30T15:11:22.242Z,48.57
2019-03-30T15:13:50.660Z,50.07
2019-03-30T15:16:19.183Z,51.30
2019-03-30T15:18:47.598Z,50.03
2019-03-30T15:21:16.126Z,49.80
2019-03-30T15:23:44.535Z,48.53
2019-03-30T15:26:12.981Z,50.17
2019-03-30T15:28:42.887Z,53.30
2019-03-30T15:31:11.617Z,49.10
2019-03-30T15:33:40.029Z,47.40
2019-03-30T15:36:08.510Z,47.10
2019-03-30T15:38:36.931Z,50.67
2019-03-30T15:41:05.358Z,51.10
2019-03-30T15:43:38.639Z,51.00
2019-03-30T15:46:04.012Z,48.40
2019-03-30T15:48:32.524Z,49.93
2019-03-30T15:51:01.012Z,48.40
2019-03-30T15:53:29.477Z,50.20
2019-03-30T15:55:57.979Z,49.70
2019-03-30T15:58:26.422Z,48.87
2019-03-30T16:00:55.088Z,55.40
2019-03-30T16:03:23.593Z,52.87
2019-03-30T16:05:52.097Z,51.50
2019-03-30T16:08:20.537Z,48.50
2019-03-30T16:10:52.111Z,50.27
2019-03-30T16:13:19.283Z,52.77
2019-03-30T16:15:47.689Z,51.87
2019-03-30T16:18:16.134Z,53.43
2019-03-30T16:20:44.559Z,52.00
2019-03-30T16:23:12.997Z,50.80
2019-03-30T16:25:41.401Z,50.03
2019-03-30T16:28:09.841Z,54.97
2019-03-30T16:30:38.258Z,55.37
2019-03-30T16:33:06.765Z,53.00
2019-03-30T16:35:35.252Z,52.53
2019-03-30T16:38:03.696Z,51.27
2019-03-30T16:40:32.111Z,52.57
2019-03-30T16:43:00.556Z,53.53
2019-03-30T16:45:28.980Z,57.07
2019-03-30T16:47:57.413Z,56.30
2019-03-30T16:50:25.836Z,53.50
2019-03-30T16:52:54.254Z,55.20
2019-03-30T16:55:22.690Z,53.70
2019-03-30T16:57:51.112Z,57.30
2019-03-30T17:00:19.629Z,54.47
2019-03-30T17:02:48.042Z,54.97
2019-03-30T17:05:16.560Z,55.77
2019-03-30T17:07:44.976Z,58.00
2019-03-30T17:10:13.599Z,57.67
2019-03-30T17:12:42.014Z,61.23
2019-03-30T17:15:10.838Z,58.27
2019-03-30T17:17:39.315Z,59.77
2019-03-30T17:20:08.641Z,58.60
2019-03-30T17:22:37.104Z,59.40
2019-03-30T17:25:07.115Z,57.30
2019-03-30T17:27:36.271Z,59.23
2019-03-30T17:30:07.728Z,60.80
2019-03-30T17:32:36.144Z,59.40
2019-03-30T17:35:06.222Z,59.87
2019-03-30T17:37:34.640Z,65.93
2019-03-30T17:40:03.698Z,66.20
2019-03-30T17:42:32.119Z,60.00
2019-03-30T17:45:00.569Z,61.67
2019-03-30T17:47:28.981Z,64.77
2019-03-30T17:49:57.428Z,66.10
2019-03-30T17:52:25.844Z,60.97
2019-03-30T17:54:54.368Z,63.87
2019-03-30T17:57:22.791Z,64.53
2019-03-30T17:59:51.236Z,66.83
2019-03-30T18:02:22.954Z,67.13
2019-03-30T18:04:49.902Z,70.10
2019-03-30T18:07:18.397Z,74.73
2019-03-30T18:09:46.845Z,74.07
2019-03-30T18:12:15.265Z,75.90
2019-03-30T18:14:43.709Z,75.97
2019-03-30T18:17:12.133Z,74.77
2019-03-30T18:19:40.583Z,75.67
2019-03-30T18:22:09.008Z,68.80
2019-03-30T18:24:37.427Z,72.33
2019-03-30T18:27:05.877Z,70.70
2019-03-30T18:29:34.295Z,73.87
2019-03-30T18:32:03.114Z,73.53
2019-03-30T18:34:31.705Z,78.27
2019-03-30T18:37:00.221Z,76.23
2019-03-30T18:39:29.582Z,75.33
2019-03-30T18:41:58.035Z,85.67
2019-03-30T18:44:26.826Z,72.97
2019-03-30T18:46:55.288Z,77.20
2019-03-30T18:49:23.772Z,74.60
2019-03-30T18:51:52.220Z,73.13
2019-03-30T18:54:20.804Z,68.90
2019-03-30T18:56:49.254Z,71.93
2019-03-30T18:59:17.673Z,75.60
2019-03-30T19:01:46.123Z,81.03
2019-03-30T19:04:14.616Z,68.37
2019-03-30T19:06:43.073Z,90.47
2019-03-30T19:09:11.487Z,70.73
2019-03-30T19:11:39.938Z,69.27
2019-03-30T19:14:08.506Z,63.30
2019-03-30T19:16:37.025Z,88.23
2019-03-30T19:19:05.447Z,72.17
2019-03-30T19:21:33.898Z,72.07
2019-03-30T19:24:02.313Z,94.40
2019-03-30T19:26:30.737Z,68.33
2019-03-30T19:28:59.190Z,74.30
2019-03-30T19:31:27.676Z,74.47
2019-03-30T19:33:56.135Z,79.77
2019-03-30T19:36:24.548Z,90.77
2019-03-30T19:38:52.990Z,94.33
2019-03-30T19:41:21.414Z,92.80
2019-03-30T19:43:49.932Z,98.97
2019-03-30T19:46:18.343Z,84.87
2019-03-30T19:48:46.794Z,90.87
2019-03-30T19:51:15.210Z,87.13
2019-03-30T19:53:43.653Z,111.00
2019-03-30T19:56:12.075Z,97.00
2019-03-30T19:58:40.524Z,98.23
2019-03-30T20:01:09.010Z,88.07
2019-03-30T20:03:37.459Z,82.10
2019-03-30T20:06:05.875Z,78.10
2019-03-30T20:08:34.393Z,74.33
2019-03-30T20:11:03.058Z,76.27
2019-03-30T20:13:31.513Z,83.03
2019-03-30T20:15:59.932Z,87.93
2019-03-30T20:18:28.376Z,84.30
2019-03-30T20:20:56.864Z,78.87
2019-03-30T20:23:25.311Z,86.23
2019-03-30T20:25:53.731Z,83.97
2019-03-30T20:28:22.199Z,88.47
2019-03-30T20:30:51.055Z,89.63
2019-03-30T20:33:19.505Z,92.30
2019-03-30T20:35:47.923Z,85.90
2019-03-30T20:38:16.429Z,84.03
2019-03-30T20:40:44.834Z,90.57
2019-03-30T20:43:13.259Z,92.17
2019-03-30T20:45:41.705Z,94.50
2019-03-30T20:48:10.127Z,94.90
2019-03-30T20:50:38.572Z,97.20
2019-03-30T20:53:07.077Z,92.70
2019-03-30T20:55:35.687Z,98.00
2019-03-30T20:58:04.257Z,92.93
2019-03-30T21:00:32.715Z,93.80
2019-03-30T21:03:01.136Z,90.87
2019-03-30T21:05:29.595Z,91.50
2019-03-30T21:07:58.020Z,95.77
2019-03-30T21:10:26.477Z,76.20
2019-03-30T21:12:54.904Z,106.67
2019-03-30T21:15:23.356Z,106.27
2019-03-30T21:17:51.781Z,98.13
2019-03-30T21:20:20.225Z,106.40
2019-03-30T21:22:48.654Z,101.30
2019-03-30T21:25:17.109Z,109.47
2019-03-30T21:27:45.549Z,104.20
2019-03-30T21:30:14.863Z,108.13
2019-03-30T21:32:43.285Z,109.30
2019-03-30T21:35:11.777Z,106.57
2019-03-30T21:37:40.230Z,104.03
2019-03-30T21:40:08.717Z,110.37
2019-03-30T21:42:37.166Z,122.10
2019-03-30T21:45:07.331Z,106.60
2019-03-30T21:47:35.783Z,128.50
2019-03-30T21:50:06.356Z,132.47
2019-03-30T21:52:34.810Z,116.40
2019-03-30T21:55:03.407Z,109.70
2019-03-30T21:57:31.860Z,113.70
2019-03-30T22:00:10.032Z,109.97
2019-03-30T22:02:30.532Z,108.93
2019-03-30T22:04:58.966Z,110.40
2019-03-30T22:07:27.418Z,100.30
2019-03-30T22:09:56.505Z,117.60
2019-03-30T22:12:24.957Z,114.13
2019-03-30T22:14:53.377Z,117.27
2019-03-30T22:17:21.832Z,119.10
2019-03-30T22:19:50.256Z,117.10
2019-03-30T22:22:18.708Z,124.00
2019-03-30T22:24:47.129Z,119.47
2019-03-30T22:27:15.584Z,115.90
2019-03-30T22:29:44.007Z,114.43
2019-03-30T22:32:12.455Z,118.27
2019-03-30T22:34:40.880Z,117.43
2019-03-30T22:37:09.328Z,123.80
2019-03-30T22:39:37.749Z,119.70
2019-03-30T22:42:06.199Z,123.20
2019-03-30T22:44:34.619Z,111.97
2019-03-30T22:47:03.044Z,118.00
2019-03-30T22:49:31.497Z,108.17
2019-03-30T22:51:59.926Z,113.93
2019-03-30T22:54:28.366Z,105.97
2019-03-30T22:56:56.783Z,114.40
2019-03-30T22:59:25.234Z,113.43
2019-03-30T23:01:53.727Z,118.90
2019-03-30T23:04:22.180Z,118.10
2019-03-30T23:06:50.604Z,111.77
2019-03-30T23:09:19.056Z,120.87
2019-03-30T23:11:47.475Z,120.90
2019-03-30T23:14:15.920Z,123.03
2019-03-30T23:16:44.336Z,119.23
2019-03-30T23:19:12.788Z,121.50
2019-03-30T23:21:41.210Z,127.00
2019-03-30T23:24:09.666Z,122.40
2019-03-30T23:26:38.088Z,119.00
2019-03-30T23:29:06.580Z,102.50
2019-03-30T23:31:35.047Z,108.83
2019-03-30T23:34:03.506Z,113.77
2019-03-30T23:36:31.921Z,98.47
2019-03-30T23:39:00.362Z,112.13
2019-03-30T23:41:28.788Z,109.60
2019-03-30T23:43:57.269Z,108.53
2019-03-30T23:46:25.684Z,118.30
2019-03-30T23:48:54.102Z,110.97
2019-03-30T23:51:22.624Z,103.30
2019-03-30T23:53:51.055Z,115.20
2019-03-30T23:56:26.053Z,113.80
2019-03-30T23:58:54.538Z,95.00
